aviador You're here:

CYLW Decoded Metar

KELOWNA in BC, CANADA
Report Time2017-10-23 11:00:00
UTC Time2017-10-23 11:26:11
Flight Rules vfr VFR
WindCalm
Visibility9999 m
Phenomena:N/A
Clouds:N/A
Expected CloudBase > 800 ft AGL from Temp-Dew spread
CeilingNone
Temp03°C (ISA -9)
Dew Point01°C (87% RH)
AAT1.2°C
QNH1032 hPa
Density Alt-249 ft
Elevation1,411 ft
Report Wrong Elevation
Raw Report
CYLW 231100Z AUTO 00000KT 9SM CLR 03/01 A3048 RMK SLP332=

Extra information for CYLW:More info

Metar Taf Metar & Taf Last 4 Metars F.Rules Stats Wind Profile Meteogram Temp Stats Airport Information Weather charts Add Link Nearby VenuesMetar ALERT Operation Metar Decoded Social comments